Time;durP1;ratioP1;P1;durP2;ratioP2;P2;SDS_P1;SDS_P2;PMS_P1;PMS_P2;Temp;Humidity;BMP_temperature;BMP_pressure;BME280_temperature;BME280_humidity;BME280_pressure;Samples;Min_cycle;Max_cycle;Signal;HPM_P1;HPM_P2
2023/05/07 00:01:45;;;;;;;1.90;1.70;;;;;;;;;;5043551;28;20227;-73
2023/05/07 00:04:50;;;;;;;2.33;1.63;;;;;;;;;;5042595;28;20180;-73
2023/05/07 00:07:54;;;;;;;2.43;1.77;;;;;;;;;;5042710;28;20204;-73
2023/05/07 00:10:57;;;;;;;4.67;2.00;;;;;;;;;;5055568;28;20176;-73
2023/05/07 00:14:02;;;;;;;2.63;2.03;;;;;;;;;;5054766;28;20176;-73
2023/05/07 00:17:06;;;;;;;2.33;1.90;;;;;;;;;;5055229;28;20172;-73
2023/05/07 00:20:10;;;;;;;2.20;2.00;;;;;;;;;;5041883;28;20200;-73
2023/05/07 00:23:14;;;;;;;3.57;1.70;;;;;;;;;;5057819;28;20211;-72
2023/05/07 00:26:19;;;;;;;3.13;1.63;;;;;;;;;;5058000;28;20192;-73
2023/05/07 00:29:25;;;;;;;3.60;2.00;;;;;;;;;;5045776;28;20184;-73
2023/05/07 00:32:29;;;;;;;4.20;2.13;;;;;;;;;;5045093;28;20216;-73
2023/05/07 00:35:33;;;;;;;2.33;1.83;;;;;;;;;;5044927;28;20196;-73
2023/05/07 00:38:38;;;;;;;2.83;2.00;;;;;;;;;;5045091;28;20176;-73
2023/05/07 00:41:42;;;;;;;2.20;1.93;;;;;;;;;;5033151;28;20575;-73
2023/05/07 00:44:46;;;;;;;1.70;1.50;;;;;;;;;;5044645;28;20176;-73
2023/05/07 00:47:50;;;;;;;3.30;1.90;;;;;;;;;;5033368;28;20631;-73
2023/05/07 00:50:54;;;;;;;4.70;2.20;;;;;;;;;;5044007;28;20176;-73
2023/05/07 00:54:00;;;;;;;3.93;2.03;;;;;;;;;;5032823;28;20196;-73
2023/05/07 00:57:06;;;;;;;2.00;1.83;;;;;;;;;;5044361;28;20184;-73
2023/05/07 01:00:12;;;;;;;4.40;2.10;;;;;;;;;;5044256;28;20180;-73
2023/05/07 01:03:16;;;;;;;3.93;2.10;;;;;;;;;;5044497;28;20211;-73
2023/05/07 01:06:21;;;;;;;2.97;2.30;;;;;;;;;;5033009;28;20180;-73
2023/05/07 01:09:26;;;;;;;2.70;2.10;;;;;;;;;;5044197;28;20184;-73
2023/05/07 01:12:30;;;;;;;3.80;1.93;;;;;;;;;;5043756;28;20216;-73
2023/05/07 01:15:35;;;;;;;2.63;2.00;;;;;;;;;;5043674;28;20176;-73
2023/05/07 01:18:39;;;;;;;3.07;2.00;;;;;;;;;;5021430;28;20176;-73
2023/05/07 01:21:47;;;;;;;2.10;1.90;;;;;;;;;;5043570;28;20227;-73
2023/05/07 01:24:52;;;;;;;4.53;2.13;;;;;;;;;;5043768;28;20180;-73
2023/05/07 01:27:56;;;;;;;4.33;2.17;;;;;;;;;;5032135;28;20188;-73
2023/05/07 01:31:06;;;;;;;3.50;2.03;;;;;;;;;;5043737;28;20508;-73
2023/05/07 01:34:12;;;;;;;4.20;2.20;;;;;;;;;;5055627;28;20180;-73
2023/05/07 01:37:17;;;;;;;4.13;2.13;;;;;;;;;;5043640;28;20642;-73
2023/05/07 01:40:21;;;;;;;2.20;2.00;;;;;;;;;;5055475;28;20184;-72
2023/05/07 01:43:26;;;;;;;2.70;2.27;;;;;;;;;;5043194;28;20663;-73
2023/05/07 01:46:31;;;;;;;2.87;2.07;;;;;;;;;;5043243;28;20180;-73
2023/05/07 01:49:35;;;;;;;2.70;2.37;;;;;;;;;;5055223;28;20531;-73
2023/05/07 01:52:39;;;;;;;3.20;2.30;;;;;;;;;;5055084;28;20551;-73
2023/05/07 01:55:43;;;;;;;2.60;2.40;;;;;;;;;;5043224;28;20180;-73
2023/05/07 01:58:48;;;;;;;3.87;2.20;;;;;;;;;;5042841;28;20175;-73
2023/05/07 02:01:53;;;;;;;2.70;2.33;;;;;;;;;;5042769;28;20223;-73
2023/05/07 02:04:57;;;;;;;4.07;2.33;;;;;;;;;;5042749;28;20180;-73
2023/05/07 02:08:02;;;;;;;4.07;2.10;;;;;;;;;;5042841;28;20200;-73
2023/05/07 02:11:08;;;;;;;3.17;2.40;;;;;;;;;;5042546;28;20176;-73
2023/05/07 02:14:13;;;;;;;4.27;2.40;;;;;;;;;;5031625;28;20642;-73
2023/05/07 02:17:18;;;;;;;2.73;2.10;;;;;;;;;;5042485;28;20523;-73
2023/05/07 02:20:22;;;;;;;4.53;2.53;;;;;;;;;;5019876;28;20188;-73
2023/05/07 02:23:26;;;;;;;2.40;2.20;;;;;;;;;;5031177;28;20184;-73
2023/05/07 02:26:30;;;;;;;2.30;2.10;;;;;;;;;;5031172;28;20180;-73
2023/05/07 02:29:34;;;;;;;5.53;3.00;;;;;;;;;;5030917;28;20172;-73
2023/05/07 02:32:38;;;;;;;6.43;2.30;;;;;;;;;;5042078;28;20551;-73
2023/05/07 02:35:43;;;;;;;2.47;2.20;;;;;;;;;;5054553;28;20639;-73
2023/05/07 02:38:49;;;;;;;2.70;2.30;;;;;;;;;;5041966;28;20191;-73
2023/05/07 02:41:53;;;;;;;3.50;2.50;;;;;;;;;;5019193;28;20235;-73
2023/05/07 02:44:58;;;;;;;2.50;2.30;;;;;;;;;;5040975;28;20643;-73
2023/05/07 02:48:03;;;;;;;3.67;2.60;;;;;;;;;;5042088;28;20180;-73
2023/05/07 02:51:07;;;;;;;3.10;2.33;;;;;;;;;;5030247;28;20180;-73
2023/05/07 02:54:13;;;;;;;3.83;2.23;;;;;;;;;;5041942;28;20184;-73
2023/05/07 02:57:17;;;;;;;3.27;2.43;;;;;;;;;;5030667;28;20627;-73
2023/05/07 03:00:21;;;;;;;2.70;2.30;;;;;;;;;;5041696;28;20184;-73
2023/05/07 03:03:34;;;;;;;2.60;2.40;;;;;;;;;;5030702;28;20682;-73
2023/05/07 03:06:38;;;;;;;2.60;2.40;;;;;;;;;;5030661;28;20508;-73
2023/05/07 03:09:42;;;;;;;2.67;2.37;;;;;;;;;;5030343;28;20180;-72
2023/05/07 03:12:46;;;;;;;2.70;2.50;;;;;;;;;;5041365;28;20215;-73
2023/05/07 03:15:53;;;;;;;5.30;2.80;;;;;;;;;;5041590;28;20632;-73
2023/05/07 03:18:57;;;;;;;2.87;2.47;;;;;;;;;;5041770;28;20516;-73
2023/05/07 03:22:02;;;;;;;3.97;2.77;;;;;;;;;;5041723;28;20710;-73
2023/05/07 03:25:08;;;;;;;3.83;2.57;;;;;;;;;;5030501;28;20187;-73
2023/05/07 03:28:12;;;;;;;3.77;2.47;;;;;;;;;;5053391;28;20179;-73
2023/05/07 03:31:29;;;;;;;3.07;2.77;;;;;;;;;;5020380;28;20212;-73
2023/05/07 03:34:33;;;;;;;5.73;2.87;;;;;;;;;;5041478;28;20179;-73
2023/05/07 03:37:38;;;;;;;3.20;2.67;;;;;;;;;;5041057;28;20191;-73
2023/05/07 03:40:42;;;;;;;3.90;2.73;;;;;;;;;;5041179;28;20543;-73
2023/05/07 03:43:46;;;;;;;5.77;2.90;;;;;;;;;;5053376;28;20176;-73
2023/05/07 03:46:51;;;;;;;3.83;3.17;;;;;;;;;;5053681;28;20176;-73
2023/05/07 03:49:55;;;;;;;4.97;2.90;;;;;;;;;;5040864;28;20188;-73
2023/05/07 03:53:01;;;;;;;3.93;2.57;;;;;;;;;;5041277;28;20216;-73
2023/05/07 03:56:07;;;;;;;3.43;2.70;;;;;;;;;;5032782;28;20188;-73
2023/05/07 03:59:15;;;;;;;3.33;2.43;;;;;;;;;;5045154;28;20180;-73
2023/05/07 04:02:21;;;;;;;5.73;2.93;;;;;;;;;;5044896;28;20223;-73
2023/05/07 04:05:25;;;;;;;3.43;2.87;;;;;;;;;;5045258;28;20200;-73
2023/05/07 04:08:34;;;;;;;3.23;2.87;;;;;;;;;;5068549;23;20235;-71
2023/05/07 04:11:40;;;;;;;3.63;2.70;;;;;;;;;;5058302;28;20689;-71
2023/05/07 04:14:45;;;;;;;6.30;3.23;;;;;;;;;;5044590;28;20180;-70
2023/05/07 04:17:50;;;;;;;3.80;3.07;;;;;;;;;;5044443;28;20184;-71
2023/05/07 04:20:57;;;;;;;3.27;2.90;;;;;;;;;;5033259;28;20185;-71
2023/05/07 04:24:03;;;;;;;4.07;3.07;;;;;;;;;;5056825;28;20180;-71
2023/05/07 04:27:07;;;;;;;2.93;2.73;;;;;;;;;;5033125;28;20181;-70
2023/05/07 04:30:12;;;;;;;3.10;2.80;;;;;;;;;;5044675;28;20184;-71
2023/05/07 04:33:17;;;;;;;3.10;2.50;;;;;;;;;;5032574;28;20216;-71
2023/05/07 04:36:22;;;;;;;2.87;2.50;;;;;;;;;;5044422;28;20184;-71
2023/05/07 04:39:36;;;;;;;2.90;2.47;;;;;;;;;;5044302;28;20519;-71
2023/05/07 04:42:41;;;;;;;3.03;2.40;;;;;;;;;;5032581;28;20232;-71
2023/05/07 04:45:45;;;;;;;5.10;2.60;;;;;;;;;;5043772;28;20196;-71
2023/05/07 04:48:50;;;;;;;4.90;2.83;;;;;;;;;;5043842;28;20524;-70
2023/05/07 04:51:54;;;;;;;3.17;2.87;;;;;;;;;;5043965;28;20212;-70
2023/05/07 04:55:00;;;;;;;6.40;2.97;;;;;;;;;;5032827;28;20623;-71
2023/05/07 04:58:07;;;;;;;4.37;3.20;;;;;;;;;;5043758;28;20180;-71
2023/05/07 05:01:13;;;;;;;3.10;2.80;;;;;;;;;;5021106;28;20223;-71
2023/05/07 05:04:18;;;;;;;4.27;2.90;;;;;;;;;;5043565;28;20176;-71
2023/05/07 05:07:22;;;;;;;6.43;3.23;;;;;;;;;;5054637;28;20184;-71
2023/05/07 05:10:26;;;;;;;4.00;3.43;;;;;;;;;;5043716;28;20188;-71
2023/05/07 05:13:31;;;;;;;7.20;3.63;;;;;;;;;;5043645;28;20176;-71
2023/05/07 05:16:35;;;;;;;4.80;4.03;;;;;;;;;;5032278;28;20188;-71
2023/05/07 05:19:39;;;;;;;7.53;5.10;;;;;;;;;;5043410;28;20180;-70
2023/05/07 05:22:43;;;;;;;7.73;4.70;;;;;;;;;;5043040;28;20294;-71
2023/05/07 05:25:49;;;;;;;5.00;4.20;;;;;;;;;;5032567;28;20196;-71
2023/05/07 05:28:53;;;;;;;6.07;4.10;;;;;;;;;;5043003;28;20176;-71
2023/05/07 05:32:00;;;;;;;5.20;3.80;;;;;;;;;;5043420;28;20679;-71
2023/05/07 05:35:07;;;;;;;5.13;3.70;;;;;;;;;;5043170;28;20192;-71
2023/05/07 05:38:13;;;;;;;4.23;3.77;;;;;;;;;;5031970;28;20195;-71
2023/05/07 05:41:18;;;;;;;9.67;3.70;;;;;;;;;;5042720;28;20216;-71
2023/05/07 05:44:22;;;;;;;4.10;3.63;;;;;;;;;;5043062;28;20176;-71
2023/05/07 05:47:26;;;;;;;26.37;16.20;;;;;;;;;;5042660;28;20638;-71
2023/05/07 05:50:33;;;;;;;9.67;5.73;;;;;;;;;;5054218;28;20187;-71
2023/05/07 05:53:37;;;;;;;5.57;4.47;;;;;;;;;;5042614;28;20547;-71
2023/05/07 05:56:42;;;;;;;4.60;4.03;;;;;;;;;;5043115;28;20631;-71
2023/05/07 05:59:47;;;;;;;4.20;3.80;;;;;;;;;;5042524;28;20192;-71
2023/05/07 06:02:51;;;;;;;6.07;3.43;;;;;;;;;;5031061;28;20232;-71
2023/05/07 06:06:00;;;;;;;10.53;4.77;;;;;;;;;;5030971;28;20184;-71
2023/05/07 06:09:04;;;;;;;6.30;3.87;;;;;;;;;;5042298;28;20208;-71
2023/05/07 06:12:15;;;;;;;6.30;4.00;;;;;;;;;;5054559;28;20216;-70
2023/05/07 06:15:20;;;;;;;5.03;3.67;;;;;;;;;;5031077;28;20180;-71
2023/05/07 06:18:25;;;;;;;7.17;3.63;;;;;;;;;;5042311;28;20180;-71
2023/05/07 06:21:30;;;;;;;6.23;3.53;;;;;;;;;;5042020;28;20219;-71
2023/05/07 06:24:34;;;;;;;4.43;3.83;;;;;;;;;;5031259;28;20541;-71
2023/05/07 06:27:39;;;;;;;5.67;4.17;;;;;;;;;;5042028;28;20638;-70
2023/05/07 06:30:43;;;;;;;10.53;4.67;;;;;;;;;;5030748;28;20200;-71
2023/05/07 06:33:49;;;;;;;9.40;4.93;;;;;;;;;;5041957;28;20192;-71
2023/05/07 06:36:53;;;;;;;4.37;3.67;;;;;;;;;;5054271;28;20524;-71
2023/05/07 06:40:17;;;;;;;4.40;3.17;;;;;;;;;;5054210;28;20176;-71
2023/05/07 06:43:22;;;;;;;5.27;3.80;;;;;;;;;;5041900;28;20223;-70
2023/05/07 06:46:33;;;;;;;5.83;3.60;;;;;;;;;;5054171;28;20524;-71
2023/05/07 06:49:37;;;;;;;4.70;3.87;;;;;;;;;;5041969;28;20188;-71
2023/05/07 06:52:41;;;;;;;6.57;4.10;;;;;;;;;;5030279;28;20212;-71
2023/05/07 06:55:45;;;;;;;4.87;3.33;;;;;;;;;;5054057;28;20516;-71
2023/05/07 06:58:50;;;;;;;4.17;3.50;;;;;;;;;;5030358;28;20196;-71
2023/05/07 07:01:55;;;;;;;5.13;4.63;;;;;;;;;;5041558;28;20215;-71
2023/05/07 07:05:00;;;;;;;6.90;4.43;;;;;;;;;;5041558;28;20176;-71
2023/05/07 07:08:04;;;;;;;5.60;4.40;;;;;;;;;;5029956;28;20207;-71
2023/05/07 07:11:10;;;;;;;4.97;4.47;;;;;;;;;;5030055;28;20172;-71
2023/05/07 07:14:14;;;;;;;5.07;4.53;;;;;;;;;;5041420;28;20200;-71
2023/05/07 07:17:24;;;;;;;5.40;4.30;;;;;;;;;;5041632;28;20184;-71
2023/05/07 07:20:29;;;;;;;4.73;4.20;;;;;;;;;;5041003;28;20172;-71
2023/05/07 07:23:34;;;;;;;6.10;4.60;;;;;;;;;;5030052;28;20223;-70
2023/05/07 07:26:39;;;;;;;5.73;4.37;;;;;;;;;;5041449;28;20655;-71
2023/05/07 07:29:44;;;;;;;7.90;4.47;;;;;;;;;;5029391;28;20176;-71
2023/05/07 07:32:49;;;;;;;5.00;3.87;;;;;;;;;;5053528;28;20212;-71
2023/05/07 07:35:55;;;;;;;7.33;4.40;;;;;;;;;;5041028;28;20180;-71
2023/05/07 07:38:59;;;;;;;5.47;4.10;;;;;;;;;;5040581;28;20195;-70
2023/05/07 07:42:03;;;;;;;6.00;3.70;;;;;;;;;;5040588;28;20215;-71
2023/05/07 07:45:08;;;;;;;3.77;3.47;;;;;;;;;;5041149;28;20623;-71
2023/05/07 07:48:16;;;;;;;4.10;3.60;;;;;;;;;;5040859;28;20184;-70
2023/05/07 07:51:20;;;;;;;3.57;3.27;;;;;;;;;;5040522;28;20219;-70
2023/05/07 07:54:25;;;;;;;6.07;3.37;;;;;;;;;;5040600;28;20199;-71
2023/05/07 07:57:29;;;;;;;3.97;3.13;;;;;;;;;;5040712;28;20184;-71
2023/05/07 08:00:34;;;;;;;3.43;3.10;;;;;;;;;;5052961;28;20176;-71
2023/05/07 08:03:38;;;;;;;4.87;3.67;;;;;;;;;;5040837;28;20219;-71
2023/05/07 08:06:43;;;;;;;4.20;3.30;;;;;;;;;;5040871;28;20199;-71
2023/05/07 08:09:48;;;;;;;3.83;3.50;;;;;;;;;;5040635;28;20184;-72
2023/05/07 08:12:54;;;;;;;3.30;3.00;;;;;;;;;;5040514;28;20208;-72
2023/05/07 08:15:58;;;;;;;5.37;2.73;;;;;;;;;;5040686;28;20179;-72
2023/05/07 08:19:03;;;;;;;3.40;2.80;;;;;;;;;;5029016;28;20181;-72
2023/05/07 08:22:07;;;;;;;4.00;2.53;;;;;;;;;;5040370;28;20224;-72
2023/05/07 08:25:12;;;;;;;6.77;3.23;;;;;;;;;;5040172;28;20191;-72
2023/05/07 08:28:16;;;;;;;3.92;3.35;;;;;;;;;;5040455;28;20534;-72
2023/05/07 08:31:20;;;;;;;4.93;2.63;;;;;;;;;;5040562;28;20704;-72
2023/05/07 08:34:25;;;;;;;6.55;2.80;;;;;;;;;;5040338;28;20523;-71
2023/05/07 08:37:30;;;;;;;4.28;2.63;;;;;;;;;;5040398;28;20188;-72
2023/05/07 08:40:38;;;;;;;4.25;2.78;;;;;;;;;;5028994;28;20179;-72
2023/05/07 08:43:47;;;;;;;4.07;2.55;;;;;;;;;;5032435;28;20208;-72
2023/05/07 08:46:54;;;;;;;5.65;2.60;;;;;;;;;;5032827;28;20179;-72
2023/05/07 08:49:59;;;;;;;3.72;2.80;;;;;;;;;;5043665;28;20669;-71
2023/05/07 08:53:04;;;;;;;4.25;2.38;;;;;;;;;;5032807;28;20218;-72
2023/05/07 08:56:09;;;;;;;3.10;2.33;;;;;;;;;;5044488;28;20178;-71
2023/05/07 08:59:14;;;;;;;2.60;2.13;;;;;;;;;;5043985;28;20174;-72
2023/05/07 09:02:19;;;;;;;4.70;2.58;;;;;;;;;;5043805;28;20215;-70
2023/05/07 09:05:23;;;;;;;3.50;2.25;;;;;;;;;;5055729;28;20191;-72
2023/05/07 09:08:29;;;;;;;4.85;2.30;;;;;;;;;;5032294;28;20209;-72
2023/05/07 09:11:36;;;;;;;2.40;2.05;;;;;;;;;;5043636;28;20223;-70
2023/05/07 09:14:40;;;;;;;11.18;2.50;;;;;;;;;;5043617;28;20178;-70
2023/05/07 09:17:44;;;;;;;3.53;2.00;;;;;;;;;;5032211;28;20183;-72
2023/05/07 09:20:49;;;;;;;6.18;2.10;;;;;;;;;;5032284;28;20645;-70
2023/05/07 09:23:56;;;;;;;3.30;2.20;;;;;;;;;;5043605;28;20210;-70
2023/05/07 09:27:08;;;;;;;3.60;1.80;;;;;;;;;;5043786;28;20638;-70
2023/05/07 09:30:13;;;;;;;2.20;1.80;;;;;;;;;;5032213;28;20626;-70
2023/05/07 09:33:17;;;;;;;1.77;1.60;;;;;;;;;;5043157;28;20545;-70
2023/05/07 09:36:26;;;;;;;2.95;1.70;;;;;;;;;;5042960;28;20205;-70
2023/05/07 09:39:47;;;;;;;3.80;1.65;;;;;;;;;;5031938;28;20177;-70
2023/05/07 09:42:53;;;;;;;1.98;1.70;;;;;;;;;;5055066;28;20219;-70
2023/05/07 09:46:00;;;;;;;2.65;1.70;;;;;;;;;;5031869;28;20187;-72
2023/05/07 09:49:10;;;;;;;2.05;1.65;;;;;;;;;;5043040;28;20499;-71
2023/05/07 09:52:16;;;;;;;2.97;1.90;;;;;;;;;;5031392;28;20220;-72
2023/05/07 09:55:27;;;;;;;2.38;1.70;;;;;;;;;;5042938;28;20184;-72
2023/05/07 09:58:33;;;;;;;2.72;1.60;;;;;;;;;;5042799;28;20179;-71
2023/05/07 10:01:40;;;;;;;17.83;2.05;;;;;;;;;;5031149;28;20214;-71
2023/05/07 10:04:45;;;;;;;2.17;1.55;;;;;;;;;;5042536;28;20217;-71
2023/05/07 10:07:50;;;;;;;2.63;1.50;;;;;;;;;;5058426;22;20250;-74
2023/05/07 10:10:55;;;;;;;3.78;1.50;;;;;;;;;;5062509;28;20517;-74
2023/05/07 10:14:05;;;;;;;1.73;1.45;;;;;;;;;;5042408;28;20537;-74
2023/05/07 10:17:12;;;;;;;2.92;1.38;;;;;;;;;;5042762;28;20178;-74
2023/05/07 10:20:17;;;;;;;3.05;1.60;;;;;;;;;;5042548;28;20201;-74
2023/05/07 10:23:24;;;;;;;1.65;1.50;;;;;;;;;;5042600;28;20659;-74
2023/05/07 10:26:32;;;;;;;4.88;1.45;;;;;;;;;;5032246;28;20181;-74
2023/05/07 10:30:01;;;;;;;12.77;1.77;;;;;;;;;;5042292;28;20184;-74
2023/05/07 10:33:13;;;;;;;2.47;1.55;;;;;;;;;;5031042;28;20215;-74
2023/05/07 10:36:22;;;;;;;4.35;1.35;;;;;;;;;;5042333;28;20183;-74
2023/05/07 10:39:27;;;;;;;3.13;2.00;;;;;;;;;;5042216;28;20187;-74
2023/05/07 10:42:31;;;;;;;4.18;1.85;;;;;;;;;;5030915;28;20218;-74
2023/05/07 10:45:36;;;;;;;4.00;1.98;;;;;;;;;;5042143;28;20679;-73
2023/05/07 10:49:05;;;;;;;4.25;1.65;;;;;;;;;;5043049;28;20184;-72
2023/05/07 10:52:36;;;;;;;1.92;1.60;;;;;;;;;;5046155;28;20205;-72
2023/05/07 10:55:50;;;;;;;2.05;1.52;;;;;;;;;;5042147;28;20182;-72
2023/05/07 10:59:23;;;;;;;2.42;1.67;;;;;;;;;;5030452;28;20199;-73
2023/05/07 11:03:02;;;;;;;2.17;1.60;;;;;;;;;;5019284;28;20696;-72
2023/05/07 11:06:16;;;;;;;3.22;1.45;;;;;;;;;;5012800;28;20203;-72
2023/05/07 11:09:50;;;;;;;2.10;1.23;;;;;;;;;;5041620;28;20211;-73
2023/05/07 11:12:55;;;;;;;1.58;1.35;;;;;;;;;;5041522;28;20222;-72
2023/05/07 11:16:17;;;;;;;1.75;1.40;;;;;;;;;;5033677;28;20191;-73
2023/05/07 11:19:49;;;;;;;1.52;1.17;;;;;;;;;;5042575;28;20184;-73
2023/05/07 11:22:55;;;;;;;2.78;1.38;;;;;;;;;;5030344;28;20208;-73
2023/05/07 11:26:11;;;;;;;3.17;1.50;;;;;;;;;;5041658;28;20181;-73
2023/05/07 11:29:19;;;;;;;2.33;1.45;;;;;;;;;;5041533;28;20176;-73
2023/05/07 11:32:26;;;;;;;1.85;1.52;;;;;;;;;;5041543;28;20216;-74
2023/05/07 11:35:32;;;;;;;2.83;1.65;;;;;;;;;;5041319;28;20188;-74
2023/05/07 11:38:38;;;;;;;2.92;1.60;;;;;;;;;;5041197;28;20552;-74
2023/05/07 11:41:42;;;;;;;1.77;1.23;;;;;;;;;;5053625;28;20212;-73
2023/05/07 11:44:48;;;;;;;2.00;1.42;;;;;;;;;;5053304;28;20687;-73
2023/05/07 11:47:52;;;;;;;1.45;1.10;;;;;;;;;;5053785;28;20650;-73
2023/05/07 11:51:02;;;;;;;3.22;1.45;;;;;;;;;;5053129;28;20176;-73
2023/05/07 11:54:11;;;;;;;4.45;1.42;;;;;;;;;;5053574;28;20173;-73
2023/05/07 11:57:15;;;;;;;1.50;1.38;;;;;;;;;;5053957;28;20197;-73
2023/05/07 12:00:19;;;;;;;2.65;1.33;;;;;;;;;;5053414;28;20690;-73
2023/05/07 12:03:24;;;;;;;1.88;1.45;;;;;;;;;;5041029;28;20196;-73
2023/05/07 12:06:28;;;;;;;1.38;1.10;;;;;;;;;;5053459;28;20176;-72
2023/05/07 12:09:33;;;;;;;2.72;1.25;;;;;;;;;;5040890;28;20203;-73
2023/05/07 12:12:44;;;;;;;2.72;1.35;;;;;;;;;;5029373;28;20216;-73
2023/05/07 12:15:55;;;;;;;5.30;1.40;;;;;;;;;;5041569;28;20172;-73
2023/05/07 12:19:00;;;;;;;2.47;1.30;;;;;;;;;;5057257;28;20183;-73
2023/05/07 12:22:05;;;;;;;3.80;1.40;;;;;;;;;;5044857;28;20207;-73
2023/05/07 12:25:09;;;;;;;1.65;1.30;;;;;;;;;;5056963;28;20563;-73
2023/05/07 12:28:18;;;;;;;1.73;1.02;;;;;;;;;;5044928;28;20183;-73
2023/05/07 12:31:21;;;;;;;1.52;1.10;;;;;;;;;;5057158;28;20219;-73
2023/05/07 12:34:26;;;;;;;1.63;1.15;;;;;;;;;;5056834;28;20657;-73
2023/05/07 12:37:30;;;;;;;1.20;1.10;;;;;;;;;;5056877;28;20199;-73
2023/05/07 12:40:39;;;;;;;2.25;1.50;;;;;;;;;;5032949;28;20198;-73
2023/05/07 12:43:46;;;;;;;4.30;1.33;;;;;;;;;;5056664;28;20189;-73
2023/05/07 12:46:51;;;;;;;3.40;1.45;;;;;;;;;;5044547;28;20186;-72
2023/05/07 12:49:55;;;;;;;4.05;1.20;;;;;;;;;;5056449;28;20184;-73
2023/05/07 12:53:00;;;;;;;5.95;1.40;;;;;;;;;;5056510;28;20219;-73
2023/05/07 12:56:05;;;;;;;3.65;1.50;;;;;;;;;;5056711;28;20177;-73
2023/05/07 12:59:09;;;;;;;1.30;1.05;;;;;;;;;;5043953;28;20187;-73
2023/05/07 13:02:13;;;;;;;2.20;1.13;;;;;;;;;;5056313;28;20220;-72
2023/05/07 13:05:19;;;;;;;1.80;1.20;;;;;;;;;;5032522;28;20227;-72
2023/05/07 13:08:32;;;;;;;3.30;1.10;;;;;;;;;;5056392;28;20206;-73
2023/05/07 13:11:36;;;;;;;4.53;1.20;;;;;;;;;;5044195;28;20218;-72
2023/05/07 13:14:40;;;;;;;3.08;1.40;;;;;;;;;;5056476;28;20176;-73
2023/05/07 13:17:45;;;;;;;1.40;1.30;;;;;;;;;;5055922;28;20178;-73
2023/05/07 13:20:49;;;;;;;1.38;1.27;;;;;;;;;;5055993;28;20183;-73
2023/05/07 13:23:53;;;;;;;2.45;1.30;;;;;;;;;;5055668;28;20179;-72
2023/05/07 13:26:57;;;;;;;2.40;1.27;;;;;;;;;;5043811;28;20178;-72
2023/05/07 13:30:01;;;;;;;2.33;1.20;;;;;;;;;;5043985;28;20516;-72
2023/05/07 13:33:05;;;;;;;1.90;1.20;;;;;;;;;;5056406;28;20217;-72
2023/05/07 13:36:09;;;;;;;2.10;1.30;;;;;;;;;;5043369;28;20190;-73
2023/05/07 13:39:13;;;;;;;1.77;1.33;;;;;;;;;;5043253;28;20657;-72
2023/05/07 13:42:17;;;;;;;1.73;1.17;;;;;;;;;;5043447;28;20213;-71
2023/05/07 13:45:25;;;;;;;4.30;1.25;;;;;;;;;;5055679;28;20210;-72
2023/05/07 13:48:29;;;;;;;2.85;1.30;;;;;;;;;;5056057;28;20186;-72
2023/05/07 13:51:33;;;;;;;2.33;1.30;;;;;;;;;;5056840;28;20219;-73
2023/05/07 13:54:38;;;;;;;1.23;1.05;;;;;;;;;;5055564;28;20183;-72
2023/05/07 13:57:42;;;;;;;1.58;1.00;;;;;;;;;;5054945;28;20187;-73
2023/05/07 14:00:46;;;;;;;10.65;1.17;;;;;;;;;;5042583;28;20186;-73
2023/05/07 14:03:50;;;;;;;1.73;1.05;;;;;;;;;;5042442;28;20181;-73
2023/05/07 14:06:54;;;;;;;1.20;1.10;;;;;;;;;;5042411;28;20174;-73
2023/05/07 14:09:58;;;;;;;1.83;1.10;;;;;;;;;;5054876;28;20180;-72
2023/05/07 14:13:02;;;;;;;1.60;1.20;;;;;;;;;;5030895;28;20214;-72
2023/05/07 14:16:06;;;;;;;2.30;1.10;;;;;;;;;;5042308;28;20184;-72
2023/05/07 14:19:11;;;;;;;2.10;1.20;;;;;;;;;;5042249;28;20183;-72
2023/05/07 14:22:16;;;;;;;2.60;1.15;;;;;;;;;;5054210;28;20223;-73
2023/05/07 14:25:20;;;;;;;3.20;1.30;;;;;;;;;;5053863;28;20207;-73
2023/05/07 14:28:27;;;;;;;1.73;1.20;;;;;;;;;;5041864;28;20182;-72
2023/05/07 14:31:33;;;;;;;2.33;1.15;;;;;;;;;;5054090;28;20225;-73
2023/05/07 14:34:36;;;;;;;1.90;1.37;;;;;;;;;;5054140;28;20195;-73
2023/05/07 14:37:41;;;;;;;1.57;1.30;;;;;;;;;;5042179;28;20196;-73
2023/05/07 14:40:45;;;;;;;4.00;2.13;;;;;;;;;;5054393;28;20186;-73
2023/05/07 14:43:49;;;;;;;2.23;1.50;;;;;;;;;;5054000;28;20638;-73
2023/05/07 14:46:54;;;;;;;1.97;1.50;;;;;;;;;;5041560;28;20188;-73
2023/05/07 14:50:00;;;;;;;1.87;1.17;;;;;;;;;;5053842;28;20197;-73
2023/05/07 14:53:04;;;;;;;1.70;1.30;;;;;;;;;;5042074;28;20217;-73
2023/05/07 14:56:08;;;;;;;1.37;1.27;;;;;;;;;;5054000;28;20188;-73
2023/05/07 14:59:12;;;;;;;2.83;1.20;;;;;;;;;;5041630;28;20666;-74
2023/05/07 15:02:17;;;;;;;2.77;1.30;;;;;;;;;;5041402;28;20222;-73
2023/05/07 15:05:21;;;;;;;3.83;1.40;;;;;;;;;;5053707;28;20214;-73
2023/05/07 15:08:25;;;;;;;2.03;1.50;;;;;;;;;;5053898;28;20206;-73
2023/05/07 15:11:29;;;;;;;4.27;1.47;;;;;;;;;;5053793;28;20221;-73
2023/05/07 15:14:34;;;;;;;3.93;1.50;;;;;;;;;;5053941;28;20189;-73
2023/05/07 15:17:38;;;;;;;2.77;1.30;;;;;;;;;;5041752;28;20183;-73
2023/05/07 15:20:42;;;;;;;1.80;1.60;;;;;;;;;;5053441;28;20181;-73
2023/05/07 15:23:46;;;;;;;3.30;1.40;;;;;;;;;;5053862;28;20180;-73
2023/05/07 15:26:51;;;;;;;7.03;1.80;;;;;;;;;;5040780;28;20222;-74
2023/05/07 15:29:56;;;;;;;2.77;1.43;;;;;;;;;;5053427;28;20182;-73
2023/05/07 15:33:02;;;;;;;7.10;1.63;;;;;;;;;;5040968;28;20221;-73
2023/05/07 15:36:06;;;;;;;2.47;1.67;;;;;;;;;;5053081;28;20173;-74
2023/05/07 15:39:10;;;;;;;2.77;1.70;;;;;;;;;;5053385;28;20620;-73
2023/05/07 15:42:14;;;;;;;2.70;1.50;;;;;;;;;;5053098;28;20694;-73
2023/05/07 15:45:18;;;;;;;2.50;1.50;;;;;;;;;;5040996;28;20209;-73
2023/05/07 15:48:23;;;;;;;1.63;1.40;;;;;;;;;;5053491;28;20180;-74
2023/05/07 15:51:28;;;;;;;3.57;1.67;;;;;;;;;;5053096;28;20212;-74
2023/05/07 15:54:33;;;;;;;15.20;1.70;;;;;;;;;;5054222;28;20184;-73
2023/05/07 15:57:37;;;;;;;3.37;1.47;;;;;;;;;;5054003;28;20196;-73
2023/05/07 16:00:41;;;;;;;6.13;1.40;;;;;;;;;;5041317;28;20622;-73
2023/05/07 16:03:45;;;;;;;5.83;1.53;;;;;;;;;;5040979;28;20185;-73
2023/05/07 16:06:49;;;;;;;37.27;4.23;;;;;;;;;;5053364;28;20212;-74
2023/05/07 16:09:53;;;;;;;3.67;1.70;;;;;;;;;;5064660;23;20733;-71
2023/05/07 16:12:57;;;;;;;1.93;1.53;;;;;;;;;;5055798;28;20709;-70
2023/05/07 16:16:02;;;;;;;1.70;1.30;;;;;;;;;;5052740;28;20176;-70
2023/05/07 16:19:09;;;;;;;2.47;1.50;;;;;;;;;;5052971;28;20185;-71
2023/05/07 16:22:14;;;;;;;5.60;1.67;;;;;;;;;;5029327;28;20216;-71
2023/05/07 16:25:18;;;;;;;5.03;2.00;;;;;;;;;;5052466;28;20212;-70
2023/05/07 16:28:22;;;;;;;2.40;1.40;;;;;;;;;;5040633;28;20512;-71
2023/05/07 16:31:26;;;;;;;2.80;1.60;;;;;;;;;;5053029;28;20693;-71
2023/05/07 16:34:30;;;;;;;5.23;1.80;;;;;;;;;;5040594;28;20659;-71
2023/05/07 16:37:35;;;;;;;11.27;1.93;;;;;;;;;;5052766;28;20173;-71
2023/05/07 16:40:39;;;;;;;3.30;1.87;;;;;;;;;;5040256;28;20196;-71
2023/05/07 16:43:43;;;;;;;2.80;1.67;;;;;;;;;;5039981;28;20195;-71
2023/05/07 16:46:47;;;;;;;3.10;1.70;;;;;;;;;;5052475;28;20212;-71
2023/05/07 16:49:51;;;;;;;2.53;1.83;;;;;;;;;;5052934;28;20180;-70
2023/05/07 16:52:55;;;;;;;2.57;1.70;;;;;;;;;;5040377;28;20223;-70
2023/05/07 16:56:04;;;;;;;3.03;1.97;;;;;;;;;;5052656;28;20512;-72
2023/05/07 16:59:08;;;;;;;4.30;2.40;;;;;;;;;;5052849;28;20180;-72
2023/05/07 17:02:12;;;;;;;3.17;2.50;;;;;;;;;;5052826;28;20212;-72
2023/05/07 17:05:18;;;;;;;4.83;2.43;;;;;;;;;;5043454;28;20180;-72
2023/05/07 17:08:22;;;;;;;2.70;2.20;;;;;;;;;;5056324;28;20181;-72
2023/05/07 17:11:29;;;;;;;5.53;2.70;;;;;;;;;;5043761;28;20215;-70
2023/05/07 17:14:33;;;;;;;14.03;3.20;;;;;;;;;;5055628;28;20196;-72
2023/05/07 17:17:39;;;;;;;6.33;2.40;;;;;;;;;;5043640;28;20187;-72
2023/05/07 17:20:43;;;;;;;5.03;2.70;;;;;;;;;;5055629;28;20200;-72
2023/05/07 17:23:46;;;;;;;13.00;3.50;;;;;;;;;;5043249;28;20192;-72
2023/05/07 17:26:50;;;;;;;6.47;3.30;;;;;;;;;;5043354;28;20685;-72
2023/05/07 17:29:54;;;;;;;3.60;3.07;;;;;;;;;;5055687;28;20176;-71
2023/05/07 17:32:59;;;;;;;3.77;3.17;;;;;;;;;;5055314;28;20571;-71
2023/05/07 17:36:03;;;;;;;3.37;2.93;;;;;;;;;;5055320;28;20176;-71
2023/05/07 17:39:07;;;;;;;4.37;3.13;;;;;;;;;;5055522;28;20507;-71
2023/05/07 17:42:11;;;;;;;6.73;3.27;;;;;;;;;;5055494;28;20219;-71
2023/05/07 17:45:15;;;;;;;10.93;3.93;;;;;;;;;;5043400;28;20176;-71
2023/05/07 17:48:20;;;;;;;3.80;3.40;;;;;;;;;;5043370;28;20177;-71
2023/05/07 17:51:28;;;;;;;5.10;3.57;;;;;;;;;;5055210;28;20215;-71
2023/05/07 17:54:32;;;;;;;6.87;3.90;;;;;;;;;;5043026;28;20184;-72
2023/05/07 17:57:36;;;;;;;3.63;3.33;;;;;;;;;;5042863;28;20199;-71
2023/05/07 18:00:41;;;;;;;3.47;3.17;;;;;;;;;;5055064;28;20172;-71
2023/05/07 18:03:45;;;;;;;4.20;3.33;;;;;;;;;;5055769;28;20618;-71
2023/05/07 18:06:49;;;;;;;4.70;3.50;;;;;;;;;;5055639;28;20224;-71
2023/05/07 18:09:53;;;;;;;6.23;3.60;;;;;;;;;;5030848;28;20208;-71
2023/05/07 18:12:58;;;;;;;4.37;3.57;;;;;;;;;;5054883;28;20563;-71
2023/05/07 18:16:02;;;;;;;15.97;4.00;;;;;;;;;;5042325;28;20352;-71
2023/05/07 18:19:06;;;;;;;6.80;4.20;;;;;;;;;;5054563;28;20184;-72
2023/05/07 18:22:10;;;;;;;8.20;3.97;;;;;;;;;;5042313;28;20694;-72
2023/05/07 18:25:14;;;;;;;5.23;3.47;;;;;;;;;;5054438;28;20195;-72
2023/05/07 18:28:18;;;;;;;4.43;3.70;;;;;;;;;;5041835;28;20184;-72
2023/05/07 18:31:22;;;;;;;6.47;3.77;;;;;;;;;;5053947;28;20220;-72
2023/05/07 18:34:26;;;;;;;5.40;3.50;;;;;;;;;;5030647;28;20191;-72